Map

Track Data

SID SEASON NUMBER BASIN SUBBASIN NAME ISO_TIME NATURE LAT LON WMO_WIND WMO_PRES WMO_AGENCY TRACK_TYPE DIST2LAND LANDFALL IFLAG USA_AGENCY USA_ATCF_ID USA_LAT USA_LON USA_RECORD USA_STATUS USA_WIND USA_PRES USA_SSHS USA_R34_NE USA_R34_SE USA_R34_SW USA_R34_NW USA_R50_NE USA_R50_SE USA_R50_SW USA_R50_NW USA_R64_NE USA_R64_SE USA_R64_SW USA_R64_NW USA_POCI USA_ROCI USA_RMW USA_EYE TOKYO_LAT TOKYO_LON TOKYO_GRADE TOKYO_WIND TOKYO_PRES TOKYO_R50_DIR TOKYO_R50_LONG TOKYO_R50_SHORT TOKYO_R30_DIR TOKYO_R30_LONG TOKYO_R30_SHORT TOKYO_LAND CMA_LAT CMA_LON CMA_CAT CMA_WIND CMA_PRES HKO_LAT HKO_LON HKO_CAT HKO_WIND HKO_PRES NEWDELHI_LAT NEWDELHI_LON NEWDELHI_GRADE NEWDELHI_WIND NEWDELHI_PRES NEWDELHI_CI NEWDELHI_DP NEWDELHI_POCI REUNION_LAT REUNION_LON REUNION_TYPE REUNION_WIND REUNION_PRES REUNION_TNUM REUNION_CI REUNION_RMW REUNION_R34_NE REUNION_R34_SE REUNION_R34_SW REUNION_R34_NW REUNION_R50_NE REUNION_R50_SE REUNION_R50_SW REUNION_R50_NW REUNION_R64_NE REUNION_R64_SE REUNION_R64_SW REUNION_R64_NW BOM_LAT BOM_LON BOM_TYPE BOM_WIND BOM_PRES BOM_TNUM BOM_CI BOM_RMW BOM_R34_NE BOM_R34_SE BOM_R34_SW BOM_R34_NW BOM_R50_NE BOM_R50_SE BOM_R50_SW BOM_R50_NW BOM_R64_NE BOM_R64_SE BOM_R64_SW BOM_R64_NW BOM_ROCI BOM_POCI BOM_EYE BOM_POS_METHOD BOM_PRES_METHOD NADI_LAT NADI_LON NADI_CAT NADI_WIND NADI_PRES WELLINGTON_LAT WELLINGTON_LON WELLINGTON_WIND WELLINGTON_PRES DS824_LAT DS824_LON DS824_STAGE DS824_WIND DS824_PRES TD9636_LAT TD9636_LON TD9636_STAGE TD9636_WIND TD9636_PRES TD9635_LAT TD9635_LON TD9635_WIND TD9635_PRES TD9635_ROCI NEUMANN_LAT NEUMANN_LON NEUMANN_CLASS NEUMANN_WIND NEUMANN_PRES MLC_LAT MLC_LON MLC_CLASS MLC_WIND MLC_PRES USA_GUST BOM_GUST BOM_GUST_PER REUNION_GUST REUNION_GUST_PER USA_SEAHGT USA_SEARAD_NE USA_SEARAD_SE USA_SEARAD_SW USA_SEARAD_NW STORM_SPEED STORM_DIR
1999260N15255 1999 81 EP MM HILARY 1999-09-16 12:00:00 NR 14.7000 -105.400 main 450 450 O_____________ jtwc_ep EP131999 14.7000 -105.400 20 -1 8 285
1999260N15255 1999 81 EP MM HILARY 1999-09-16 15:00:00 NR 14.8002 -105.775 main 462 458 P_____________ EP131999 14.7977 -105.770 22 -1 7 286
1999260N15255 1999 81 EP MM HILARY 1999-09-16 18:00:00 NR 14.9000 -106.100 main 470 468 O_____________ jtwc_ep EP131999 14.9000 -106.100 25 -1 6 290
1999260N15255 1999 81 EP MM HILARY 1999-09-16 21:00:00 NR 14.9999 -106.350 main 481 479 P_____________ EP131999 15.0074 -106.365 25 -1 5 292
1999260N15255 1999 81 EP MM HILARY 1999-09-17 00:00:00 NR 15.1000 -106.600 main 487 487 O_____________ jtwc_ep EP131999 15.1000 -106.600 25 -1 6 288
1999260N15255 1999 81 EP MM HILARY 1999-09-17 03:00:00 NR 15.1850 -106.928 main 500 500 P_____________ EP131999 15.1349 -106.828 25 -1 6 285
1999260N15255 1999 81 EP MM HILARY 1999-09-17 06:00:00 TS 15.2667 -107.233 25 1006 hurdat_epa main 505 505 O_____________ hurdat_epa EP131999 15.2000 -107.100 TD 25 1006 -1 7 292
1999260N15255 1999 81 EP MM HILARY 1999-09-17 09:00:00 TS 15.4400 -107.587 main 518 509 P_____________ EP131999 15.3775 -107.470 TD 25 1006 -1 8 297
1999260N15255 1999 81 EP MM HILARY 1999-09-17 12:00:00 TS 15.6400 -107.980 25 1006 hurdat_epa main 526 518 O_____________ hurdat_epa EP131999 15.6000 -107.900 TD 25 1006 -1 9 297
1999260N15255 1999 81 EP MM HILARY 1999-09-17 15:00:00 TS 15.8559 -108.427 main 531 531 P_____________ EP131999 15.8150 -108.342 TD 25 1005 -1 9 295
1999260N15255 1999 81 EP MM HILARY 1999-09-17 18:00:00 TS 16.0333 -108.867 25 1005 hurdat_epa main 561 554 O_____________ hurdat_epa EP131999 16.0000 -108.800 TD 25 1005 -1 8 289
1999260N15255 1999 81 EP MM HILARY 1999-09-17 21:00:00 TS 16.1107 -109.200 main 576 576 P_____________ EP131999 16.1299 -109.258 TD 27 1004 -1 6 279
1999260N15255 1999 81 EP MM HILARY 1999-09-18 00:00:00 TS 16.1333 -109.533 30 1004 hurdat_epa main 599 599 O_____________ hurdat_epa EP131999 16.2000 -109.700 TD 30 1004 -1 7 273
1999260N15255 1999 81 EP MM HILARY 1999-09-18 03:00:00 TS 16.1550 -109.971 main 632 632 P_____________ EP131999 16.2149 -110.108 TD 30 1003 -1 9 272
1999260N15255 1999 81 EP MM HILARY 1999-09-18 06:00:00 TS 16.1667 -110.433 30 1003 hurdat_epa main 666 666 O_____________ hurdat_epa EP131999 16.2000 -110.500 TD 30 1003 -1 9 271
1999260N15255 1999 81 EP MM HILARY 1999-09-18 09:00:00 TS 16.1683 -110.878 main 710 710 P_____________ EP131999 16.1850 -110.923 TD 32 1002 -1 8 272
1999260N15255 1999 81 EP MM HILARY 1999-09-18 12:00:00 TS 16.2000 -111.267 35 1002 hurdat_epa main 745 745 O_____________ hurdat_epa EP131999 16.2000 -111.300 TS 35 1002 0 7 281
1999260N15255 1999 81 EP MM HILARY 1999-09-18 15:00:00 TS 16.2941 -111.566 main 756 748 P_____________ EP131999 16.2699 -111.580 TS 37 1001 0 6 295
1999260N15255 1999 81 EP MM HILARY 1999-09-18 18:00:00 TS 16.4333 -111.800 40 1001 hurdat_epa main 751 735 O_____________ hurdat_epa EP131999 16.4000 -111.800 TS 40 1001 0 5 302
1999260N15255 1999 81 EP MM HILARY 1999-09-18 21:00:00 TS 16.5600 -112.015 main 735 719 P_____________ EP131999 16.5625 -112.015 TS 42 1000 0 5 311
1999260N15255 1999 81 EP MM HILARY 1999-09-19 00:00:00 TS 16.7667 -112.200 45 999 hurdat_epa main 719 695 O_____________ hurdat_epa EP131999 16.8000 -112.200 TS 45 999 0 6 327
1999260N15255 1999 81 EP MM HILARY 1999-09-19 03:00:00 TS 17.0950 -112.374 main 695 657 P_____________ EP131999 17.1050 -112.358 TS 47 997 0 8 337
1999260N15255 1999 81 EP MM HILARY 1999-09-19 06:00:00 TS 17.5333 -112.533 50 995 hurdat_epa main 657 615 O_____________ hurdat_epa EP131999 17.5000 -112.500 TS 50 995 0 10 342
1999260N15255 1999 81 EP MM HILARY 1999-09-19 09:00:00 TS 18.0367 -112.688 main 615 562 P_____________ EP131999 17.9625 -112.650 TS 52 993 0 11 345
1999260N15255 1999 81 EP MM HILARY 1999-09-19 12:00:00 TS 18.6000 -112.833 55 992 hurdat_epa main 562 511 O_____________ hurdat_epa EP131999 18.5000 -112.800 TS 55 992 0 12 348
1999260N15255 1999 81 EP MM HILARY 1999-09-19 15:00:00 TS 19.1908 -112.949 main 511 480 P_____________ EP131999 19.0999 -112.935 TS 57 990 0 12 348
1999260N15255 1999 81 EP MM HILARY 1999-09-19 18:00:00 TS 19.7667 -113.100 60 989 hurdat_epa main 472 455 O_____________ hurdat_epa EP131999 19.7000 -113.100 TS 60 989 0 12 341
1999260N15255 1999 81 EP MM HILARY 1999-09-19 21:00:00 TS 20.2701 -113.354 main 456 443 P_____________ EP131999 20.2225 -113.342 TS 62 988 0 11 333
1999260N15255 1999 81 EP MM HILARY 1999-09-20 00:00:00 TS 20.7333 -113.633 65 988 hurdat_epa main 445 421 O_____________ hurdat_epa EP131999 20.7000 -113.600 HU 65 988 1 11 333
1999260N15255 1999 81 EP MM HILARY 1999-09-20 03:00:00 TS 21.2008 -113.870 main 426 394 P_____________ EP131999 21.1650 -113.815 HU 65 987 1 10 336
1999260N15255 1999 81 EP MM HILARY 1999-09-20 06:00:00 TS 21.6333 -114.067 65 987 hurdat_epa main 400 370 O_____________ hurdat_epa EP131999 21.6000 -114.000 HU 65 987 1 9 338
1999260N15255 1999 81 EP MM HILARY 1999-09-20 09:00:00 TS 22.0200 -114.220 main 370 349 P_____________ EP131999 22.0225 -114.165 HU 62 987 0 8 341
1999260N15255 1999 81 EP MM HILARY 1999-09-20 12:00:00 TS 22.3667 -114.333 60 988 hurdat_epa main 341 323 O_____________ hurdat_epa EP131999 22.4000 -114.300 TS 60 988 0 7 344
1999260N15255 1999 81 EP MM HILARY 1999-09-20 15:00:00 TS 22.6908 -114.429 main 323 308 P_____________ EP131999 22.7150 -114.415 TS 57 989 0 7 347
1999260N15255 1999 81 EP MM HILARY 1999-09-20 18:00:00 TS 23.0000 -114.500 55 991 hurdat_epa main 308 287 O_____________ hurdat_epa EP131999 23.0000 -114.500 TS 55 991 0 6 349
1999260N15255 1999 81 EP MM HILARY 1999-09-20 21:00:00 TS 23.3117 -114.558 main 295 277 P_____________ EP131999 23.2925 -114.565 TS 50 993 0 6 352
1999260N15255 1999 81 EP MM HILARY 1999-09-21 00:00:00 TS 23.6333 -114.600 45 995 hurdat_epa main 277 258 O_____________ hurdat_epa EP131999 23.6000 -114.600 TS 45 995 0 7 354
1999260N15255 1999 81 EP MM HILARY 1999-09-21 03:00:00 TS 23.9883 -114.638 main 258 255 P_____________ EP131999 23.9500 -114.608 TS 42 997 0 7 355
1999260N15255 1999 81 EP MM HILARY 1999-09-21 06:00:00 TS 24.3333 -114.667 40 999 hurdat_epa main 258 253 O_____________ hurdat_epa EP131999 24.3000 -114.600 TS 40 999 0 7 355
1999260N15255 1999 81 EP MM HILARY 1999-09-21 09:00:00 TS 24.6392 -114.701 main 253 229 P_____________ EP131999 24.6225 -114.607 TS 35 1001 0 6 356
1999260N15255 1999 81 EP MM HILARY 1999-09-21 12:00:00 TS 24.9000 -114.700 30 1003 hurdat_epa main 229 204 O_____________ hurdat_epa EP131999 24.9000 -114.600 TD 30 1003 -1 5 7
1999260N15255 1999 81 EP MM HILARY 1999-09-21 15:00:00 TS 25.1134 -114.636 main 204 180 P_____________ EP131999 25.1175 -114.560 TD 27 1004 -1 4 21
1999260N15255 1999 81 EP MM HILARY 1999-09-21 18:00:00 TS 25.3000 -114.533 25 1006 hurdat_epa main 180 O_____________ hurdat_epa EP131999 25.3000 -114.500 TD 25 1006 -1 4 25

About IBTrACS Database

This database is a web-friendly format of International Best Track Archive for Climate Stewardship (IBTrACS), a global best track data archive curated by NOAA dating back to 1842.

Updated: 2021-12-06